sensor_id;sensor_type;location;lat;lon;timestamp;pressure;altitude;pressure_sealevel;temperature;humidity
40982;BME280;26708;50.304;19.028;2023-01-27T00:01:51;98234.47;;;1.13;59.89
40982;BME280;26708;50.304;19.028;2023-01-27T00:06:41;98331.53;;;1.73;60.04
40982;BME280;26708;50.304;19.028;2023-01-27T00:09:04;98360.69;;;2.00;60.21
40982;BME280;26708;50.304;19.028;2023-01-27T00:11:18;98496.22;;;2.78;60.31
40982;BME280;26708;50.304;19.028;2023-01-27T00:14:02;98470.00;;;2.63;60.32
40982;BME280;26708;50.304;19.028;2023-01-27T00:16:19;98168.38;;;0.84;60.28
40982;BME280;26708;50.304;19.028;2023-01-27T00:18:33;98313.41;;;1.70;60.36
40982;BME280;26708;50.304;19.028;2023-01-27T00:20:51;98205.44;;;0.89;60.33
40982;BME280;26708;50.304;19.028;2023-01-27T00:23:31;98184.03;;;0.90;60.49
40982;BME280;26708;50.304;19.028;2023-01-27T00:26:18;98217.63;;;0.95;60.59
40982;BME280;26708;50.304;19.028;2023-01-27T00:29:15;98497.81;;;2.73;60.73
40982;BME280;26708;50.304;19.028;2023-01-27T00:31:33;98215.25;;;1.02;60.68
40982;BME280;26708;50.304;19.028;2023-01-27T00:34:05;98236.69;;;1.01;60.71
40982;BME280;26708;50.304;19.028;2023-01-27T00:36:28;98190.59;;;0.81;60.80
40982;BME280;26708;50.304;19.028;2023-01-27T00:38:38;98195.63;;;0.76;60.88
40982;BME280;26708;50.304;19.028;2023-01-27T00:44:06;98202.19;;;0.67;61.24
40982;BME280;26708;50.304;19.028;2023-01-27T00:46:58;98520.97;;;2.40;61.53
40982;BME280;26708;50.304;19.028;2023-01-27T00:49:27;98519.03;;;2.33;61.89
40982;BME280;26708;50.304;19.028;2023-01-27T00:51:59;98194.63;;;0.45;61.87
40982;BME280;26708;50.304;19.028;2023-01-27T01:02:30;98274.13;;;0.62;62.81
40982;BME280;26708;50.304;19.028;2023-01-27T01:05:28;98222.53;;;0.31;62.98
40982;BME280;26708;50.304;19.028;2023-01-27T01:08:58;98501.09;;;2.08;62.96
40982;BME280;26708;50.304;19.028;2023-01-27T01:19:34;98254.88;;;0.78;62.73
40982;BME280;26708;50.304;19.028;2023-01-27T01:22:52;98285.34;;;0.92;62.66
40982;BME280;26708;50.304;19.028;2023-01-27T01:25:23;98295.75;;;0.95;62.78
40982;BME280;26708;50.304;19.028;2023-01-27T01:28:38;98446.56;;;1.96;62.61
40982;BME280;26708;50.304;19.028;2023-01-27T01:34:25;98506.06;;;2.30;62.72
40982;BME280;26708;50.304;19.028;2023-01-27T01:40:56;98225.00;;;0.55;62.54
40982;BME280;26708;50.304;19.028;2023-01-27T01:45:27;98209.44;;;0.52;62.34
40982;BME280;26708;50.304;19.028;2023-01-27T02:10:11;98270.06;;;0.70;62.44
40982;BME280;26708;50.304;19.028;2023-01-27T02:12:27;98513.19;;;2.09;62.55
40982;BME280;26708;50.304;19.028;2023-01-27T02:14:40;98325.47;;;1.12;62.43
40982;BME280;26708;50.304;19.028;2023-01-27T02:17:30;98196.16;;;0.38;62.34
40982;BME280;26708;50.304;19.028;2023-01-27T02:25:16;98427.94;;;1.77;62.29
40982;BME280;26708;50.304;19.028;2023-01-27T02:27:52;98188.44;;;0.38;61.96
40982;BME280;26708;50.304;19.028;2023-01-27T02:30:33;98487.56;;;2.15;61.97
40982;BME280;26708;50.304;19.028;2023-01-27T02:33:25;98247.59;;;0.65;62.00
40982;BME280;26708;50.304;19.028;2023-01-27T02:39:41;98476.66;;;1.96;62.04
40982;BME280;26708;50.304;19.028;2023-01-27T02:42:15;98487.25;;;2.05;61.87
40982;BME280;26708;50.304;19.028;2023-01-27T02:45:35;98491.38;;;2.00;62.00
40982;BME280;26708;50.304;19.028;2023-01-27T02:55:34;98206.38;;;0.09;61.75
40982;BME280;26708;50.304;19.028;2023-01-27T03:01:32;98481.63;;;1.90;61.92
40982;BME280;26708;50.304;19.028;2023-01-27T03:07:50;98199.63;;;0.13;61.94
40982;BME280;26708;50.304;19.028;2023-01-27T03:11:43;98490.19;;;1.89;61.61
40982;BME280;26708;50.304;19.028;2023-01-27T03:25:13;98375.44;;;0.91;61.77
40982;BME280;26708;50.304;19.028;2023-01-27T03:28:18;98250.88;;;0.07;61.76
40982;BME280;26708;50.304;19.028;2023-01-27T03:31:58;98271.91;;;0.46;61.88
40982;BME280;26708;50.304;19.028;2023-01-27T03:37:35;98232.72;;;0.28;61.83
40982;BME280;26708;50.304;19.028;2023-01-27T03:40:20;98500.31;;;1.83;61.98
40982;BME280;26708;50.304;19.028;2023-01-27T03:42:57;98209.38;;;-0.04;61.93
40982;BME280;26708;50.304;19.028;2023-01-27T03:51:39;98292.97;;;0.35;61.92
40982;BME280;26708;50.304;19.028;2023-01-27T03:55:27;98499.78;;;1.65;62.25
40982;BME280;26708;50.304;19.028;2023-01-27T04:11:12;98193.59;;;-0.39;62.71
40982;BME280;26708;50.304;19.028;2023-01-27T04:27:15;98236.06;;;-0.25;62.20
40982;BME280;26708;50.304;19.028;2023-01-27T04:30:07;98323.84;;;0.35;62.36
40982;BME280;26708;50.304;19.028;2023-01-27T04:32:51;98351.97;;;0.55;62.18
40982;BME280;26708;50.304;19.028;2023-01-27T04:35:13;98364.13;;;0.59;62.14
40982;BME280;26708;50.304;19.028;2023-01-27T04:37:29;98250.88;;;-0.18;62.03
40982;BME280;26708;50.304;19.028;2023-01-27T04:39:53;98520.56;;;1.43;62.12
40982;BME280;26708;50.304;19.028;2023-01-27T04:42:22;98333.34;;;0.37;61.70
40982;BME280;26708;50.304;19.028;2023-01-27T04:47:33;98339.13;;;0.30;61.40
40982;BME280;26708;50.304;19.028;2023-01-27T05:05:17;98454.31;;;1.14;60.01
40982;BME280;26708;50.304;19.028;2023-01-27T05:07:23;98274.53;;;-0.03;59.45
40982;BME280;26708;50.304;19.028;2023-01-27T05:09:30;98277.72;;;-0.10;59.13
40982;BME280;26708;50.304;19.028;2023-01-27T05:11:39;98506.09;;;1.21;59.05
40982;BME280;26708;50.304;19.028;2023-01-27T05:13:57;98442.69;;;0.73;59.33
40982;BME280;26708;50.304;19.028;2023-01-27T05:16:26;98207.88;;;-0.72;59.29
40982;BME280;26708;50.304;19.028;2023-01-27T05:25:25;98444.22;;;0.68;59.47
40982;BME280;26708;50.304;19.028;2023-01-27T05:28:06;98231.41;;;-0.60;59.41
40982;BME280;26708;50.304;19.028;2023-01-27T05:30:31;98246.13;;;-0.56;59.10
40982;BME280;26708;50.304;19.028;2023-01-27T05:34:14;98243.31;;;-0.62;59.02
40982;BME280;26708;50.304;19.028;2023-01-27T05:37:36;98451.25;;;0.74;58.73
40982;BME280;26708;50.304;19.028;2023-01-27T05:40:43;98229.28;;;-0.72;58.48
40982;BME280;26708;50.304;19.028;2023-01-27T05:43:39;98329.06;;;-0.12;58.37
40982;BME280;26708;50.304;19.028;2023-01-27T05:46:25;98547.78;;;1.10;57.94
40982;BME280;26708;50.304;19.028;2023-01-27T05:49:39;98536.44;;;1.05;57.83
40982;BME280;26708;50.304;19.028;2023-01-27T05:51:52;98449.06;;;0.36;57.69
40982;BME280;26708;50.304;19.028;2023-01-27T05:57:57;98286.44;;;-0.77;57.58
40982;BME280;26708;50.304;19.028;2023-01-27T06:01:01;98545.97;;;0.82;58.19
40982;BME280;26708;50.304;19.028;2023-01-27T06:08:51;98324.50;;;-0.44;58.64
40982;BME280;26708;50.304;19.028;2023-01-27T06:12:02;98308.63;;;-0.56;58.78
40982;BME280;26708;50.304;19.028;2023-01-27T06:14:11;98387.31;;;-0.12;58.79
40982;BME280;26708;50.304;19.028;2023-01-27T06:16:19;98422.88;;;0.23;58.57
40982;BME280;26708;50.304;19.028;2023-01-27T06:18:25;98392.19;;;0.04;58.57
40982;BME280;26708;50.304;19.028;2023-01-27T06:20:32;98555.38;;;1.05;58.54
40982;BME280;26708;50.304;19.028;2023-01-27T06:22:37;98401.66;;;0.05;58.57
40982;BME280;26708;50.304;19.028;2023-01-27T06:24:43;98357.63;;;-0.04;58.67
40982;BME280;26708;50.304;19.028;2023-01-27T06:26:54;98276.03;;;-0.58;58.53
40982;BME280;26708;50.304;19.028;2023-01-27T06:29:03;98252.91;;;-0.58;58.16
40982;BME280;26708;50.304;19.028;2023-01-27T06:31:19;98347.97;;;-0.11;58.24
40982;BME280;26708;50.304;19.028;2023-01-27T06:36:59;98267.50;;;-0.57;57.58
40982;BME280;26708;50.304;19.028;2023-01-27T06:39:50;98411.06;;;0.04;57.89
40982;BME280;26708;50.304;19.028;2023-01-27T06:42:58;98269.97;;;-0.82;58.03
40982;BME280;26708;50.304;19.028;2023-01-27T06:46:03;98268.13;;;-0.86;58.35
40982;BME280;26708;50.304;19.028;2023-01-27T06:55:03;98578.19;;;0.95;58.64
40982;BME280;26708;50.304;19.028;2023-01-27T06:58:01;98450.63;;;0.31;58.80
40982;BME280;26708;50.304;19.028;2023-01-27T07:01:00;98273.72;;;-0.74;58.53
40982;BME280;26708;50.304;19.028;2023-01-27T07:07:28;98608.41;;;1.00;58.90
40982;BME280;26708;50.304;19.028;2023-01-27T07:09:41;98596.28;;;0.96;58.73
40982;BME280;26708;50.304;19.028;2023-01-27T07:11:52;98526.81;;;0.51;58.94
40982;BME280;26708;50.304;19.028;2023-01-27T07:14:09;98296.84;;;-0.96;59.42
40982;BME280;26708;50.304;19.028;2023-01-27T07:16:40;98614.78;;;0.86;59.18
40982;BME280;26708;50.304;19.028;2023-01-27T07:18:50;98593.94;;;0.80;59.08
40982;BME280;26708;50.304;19.028;2023-01-27T07:21:24;98604.88;;;0.73;59.33
40982;BME280;26708;50.304;19.028;2023-01-27T07:26:45;98384.50;;;-0.65;59.55
40982;BME280;26708;50.304;19.028;2023-01-27T07:29:22;98576.88;;;0.59;59.54
40982;BME280;26708;50.304;19.028;2023-01-27T07:32:59;98323.94;;;-1.04;59.57
40982;BME280;26708;50.304;19.028;2023-01-27T07:39:22;98341.69;;;-0.87;59.79
40982;BME280;26708;50.304;19.028;2023-01-27T07:49:03;98301.50;;;-1.08;60.07
40982;BME280;26708;50.304;19.028;2023-01-27T07:52:06;98299.09;;;-1.05;60.02
40982;BME280;26708;50.304;19.028;2023-01-27T08:07:29;98593.03;;;0.78;60.65
40982;BME280;26708;50.304;19.028;2023-01-27T08:09:38;98444.06;;;-0.08;60.58
40982;BME280;26708;50.304;19.028;2023-01-27T08:11:43;98454.88;;;-0.16;60.57
40982;BME280;26708;50.304;19.028;2023-01-27T08:13:48;98400.09;;;-0.37;60.92
40982;BME280;26708;50.304;19.028;2023-01-27T08:15:55;98345.84;;;-0.68;60.87
40982;BME280;26708;50.304;19.028;2023-01-27T08:18:03;98431.91;;;-0.12;61.03
40982;BME280;26708;50.304;19.028;2023-01-27T08:20:14;98387.22;;;-0.61;61.24
40982;BME280;26708;50.304;19.028;2023-01-27T08:22:23;98432.81;;;-0.10;61.29
40982;BME280;26708;50.304;19.028;2023-01-27T08:25:01;98582.03;;;0.82;61.45
40982;BME280;26708;50.304;19.028;2023-01-27T08:32:28;98586.28;;;0.82;61.05
40982;BME280;26708;50.304;19.028;2023-01-27T08:34:33;98562.16;;;0.55;61.13
40982;BME280;26708;50.304;19.028;2023-01-27T08:36:45;98551.13;;;0.59;61.13
40982;BME280;26708;50.304;19.028;2023-01-27T08:38:51;98352.09;;;-0.62;61.07
40982;BME280;26708;50.304;19.028;2023-01-27T08:41:02;98471.28;;;0.11;61.29
40982;BME280;26708;50.304;19.028;2023-01-27T08:43:08;98525.97;;;0.50;61.28
40982;BME280;26708;50.304;19.028;2023-01-27T08:45:25;98319.00;;;-0.76;61.16
40982;BME280;26708;50.304;19.028;2023-01-27T08:47:32;98545.97;;;0.59;61.47
40982;BME280;26708;50.304;19.028;2023-01-27T08:49:37;98565.47;;;0.76;61.20
40982;BME280;26708;50.304;19.028;2023-01-27T08:51:43;98570.69;;;0.77;60.98
40982;BME280;26708;50.304;19.028;2023-01-27T08:53:47;98307.69;;;-0.81;60.90
40982;BME280;26708;50.304;19.028;2023-01-27T08:56:06;98610.06;;;0.98;60.84
40982;BME280;26708;50.304;19.028;2023-01-27T08:58:15;98361.88;;;-0.52;60.96
40982;BME280;26708;50.304;19.028;2023-01-27T09:00:25;98415.50;;;-0.15;60.70
40982;BME280;26708;50.304;19.028;2023-01-27T09:03:00;98389.28;;;-0.29;60.47
40982;BME280;26708;50.304;19.028;2023-01-27T09:05:06;98617.22;;;1.07;60.56
40982;BME280;26708;50.304;19.028;2023-01-27T09:07:29;98392.06;;;-0.46;60.84
40982;BME280;26708;50.304;19.028;2023-01-27T09:09:45;98288.56;;;-0.89;61.03
40982;BME280;26708;50.304;19.028;2023-01-27T09:12:04;98622.28;;;1.04;61.49
40982;BME280;26708;50.304;19.028;2023-01-27T09:14:10;98621.31;;;1.00;61.63
40982;BME280;26708;50.304;19.028;2023-01-27T09:19:07;98369.41;;;-0.56;61.76
40982;BME280;26708;50.304;19.028;2023-01-27T09:21:14;98626.75;;;1.08;61.58
40982;BME280;26708;50.304;19.028;2023-01-27T09:23:19;98590.78;;;0.87;61.62
40982;BME280;26708;50.304;19.028;2023-01-27T09:25:24;98588.78;;;0.80;61.40
40982;BME280;26708;50.304;19.028;2023-01-27T09:27:33;98503.66;;;0.28;61.51
40982;BME280;26708;50.304;19.028;2023-01-27T09:29:38;98469.53;;;0.10;61.73
40982;BME280;26708;50.304;19.028;2023-01-27T09:31:42;98637.91;;;1.08;61.58
40982;BME280;26708;50.304;19.028;2023-01-27T09:33:52;98451.94;;;-0.03;61.40
40982;BME280;26708;50.304;19.028;2023-01-27T09:38:24;98516.19;;;0.42;61.02
40982;BME280;26708;50.304;19.028;2023-01-27T09:40:49;98555.41;;;0.58;61.40
40982;BME280;26708;50.304;19.028;2023-01-27T09:43:41;98601.28;;;0.93;61.56
40982;BME280;26708;50.304;19.028;2023-01-27T09:46:40;98346.53;;;-0.50;61.11
40982;BME280;26708;50.304;19.028;2023-01-27T09:49:17;98598.06;;;0.99;61.09
40982;BME280;26708;50.304;19.028;2023-01-27T09:51:50;98555.16;;;0.76;60.81
40982;BME280;26708;50.304;19.028;2023-01-27T09:54:23;98496.69;;;0.48;60.40
40982;BME280;26708;50.304;19.028;2023-01-27T09:56:53;98559.25;;;0.94;60.47
40982;BME280;26708;50.304;19.028;2023-01-27T10:09:28;98377.09;;;0.13;58.56
40982;BME280;26708;50.304;19.028;2023-01-27T10:13:05;98639.38;;;1.75;58.07
40982;BME280;26708;50.304;19.028;2023-01-27T10:19:06;98633.09;;;1.67;57.61
40982;BME280;26708;50.304;19.028;2023-01-27T10:21:50;98501.53;;;0.88;57.20
40982;BME280;26708;50.304;19.028;2023-01-27T10:24:21;98340.25;;;-0.11;56.89
40982;BME280;26708;50.304;19.028;2023-01-27T10:27:39;98520.91;;;1.02;57.03
40982;BME280;26708;50.304;19.028;2023-01-27T10:30:24;98463.00;;;0.66;56.82
40982;BME280;26708;50.304;19.028;2023-01-27T10:33:05;98631.59;;;1.74;56.32
40982;BME280;26708;50.304;19.028;2023-01-27T10:38:42;98558.72;;;1.28;55.49
40982;BME280;26708;50.304;19.028;2023-01-27T10:41:25;98587.25;;;1.34;55.87
40982;BME280;26708;50.304;19.028;2023-01-27T10:43:51;98435.72;;;0.46;56.08
40982;BME280;26708;50.304;19.028;2023-01-27T10:46:24;98459.91;;;0.51;55.65
40982;BME280;26708;50.304;19.028;2023-01-27T10:48:46;98455.59;;;0.50;55.81
40982;BME280;26708;50.304;19.028;2023-01-27T10:54:04;98460.13;;;0.57;55.88
40982;BME280;26708;50.304;19.028;2023-01-27T10:56:28;98587.03;;;1.53;55.43
40982;BME280;26708;50.304;19.028;2023-01-27T10:58:53;98625.66;;;1.76;55.44
40982;BME280;26708;50.304;19.028;2023-01-27T11:01:46;98350.38;;;0.09;55.36
40982;BME280;26708;50.304;19.028;2023-01-27T11:04:01;98523.78;;;1.11;54.67
40982;BME280;26708;50.304;19.028;2023-01-27T11:08:48;98359.47;;;0.23;54.43
40982;BME280;26708;50.304;19.028;2023-01-27T11:22:47;98485.59;;;1.24;53.14
40982;BME280;26708;50.304;19.028;2023-01-27T11:25:07;98567.09;;;1.74;52.59
40982;BME280;26708;50.304;19.028;2023-01-27T11:27:38;98571.44;;;1.75;52.39
40982;BME280;26708;50.304;19.028;2023-01-27T11:30:01;98549.81;;;1.45;52.66
40982;BME280;26708;50.304;19.028;2023-01-27T11:32:24;98535.09;;;1.41;52.74
40982;BME280;26708;50.304;19.028;2023-01-27T11:34:56;98458.72;;;0.91;52.69
40982;BME280;26708;50.304;19.028;2023-01-27T11:37:17;98606.81;;;1.79;53.17
40982;BME280;26708;50.304;19.028;2023-01-27T11:42:20;98571.97;;;1.65;53.08
40982;BME280;26708;50.304;19.028;2023-01-27T11:44:31;98607.19;;;1.91;53.14
40982;BME280;26708;50.304;19.028;2023-01-27T11:46:38;98618.75;;;2.02;52.53
40982;BME280;26708;50.304;19.028;2023-01-27T11:48:49;98440.91;;;0.97;52.68
40982;BME280;26708;50.304;19.028;2023-01-27T11:53:39;98470.16;;;0.99;51.79
40982;BME280;26708;50.304;19.028;2023-01-27T11:55:50;98574.06;;;1.50;51.91
40982;BME280;26708;50.304;19.028;2023-01-27T11:58:15;98633.06;;;1.92;51.80
40982;BME280;26708;50.304;19.028;2023-01-27T12:00:36;98483.41;;;0.85;51.92
40982;BME280;26708;50.304;19.028;2023-01-27T12:02:54;98402.44;;;0.50;52.45
40982;BME280;26708;50.304;19.028;2023-01-27T12:05:12;98473.94;;;1.10;52.19
40982;BME280;26708;50.304;19.028;2023-01-27T12:10:05;98483.13;;;1.02;52.03
40982;BME280;26708;50.304;19.028;2023-01-27T12:15:51;98369.59;;;0.43;51.93
40982;BME280;26708;50.304;19.028;2023-01-27T12:18:52;98387.38;;;0.37;52.22
40982;BME280;26708;50.304;19.028;2023-01-27T12:55:57;98575.19;;;1.58;53.69
40982;BME280;26708;50.304;19.028;2023-01-27T12:58:37;98620.38;;;2.00;53.48
40982;BME280;26708;50.304;19.028;2023-01-27T13:01:29;98448.97;;;0.81;53.10
40982;BME280;26708;50.304;19.028;2023-01-27T13:04:14;98575.41;;;1.65;53.29
40982;BME280;26708;50.304;19.028;2023-01-27T13:06:37;98486.94;;;1.13;53.33
40982;BME280;26708;50.304;19.028;2023-01-27T13:08:51;98310.25;;;0.14;53.11
40982;BME280;26708;50.304;19.028;2023-01-27T13:11:04;98627.59;;;1.83;52.87
40982;BME280;26708;50.304;19.028;2023-01-27T13:13:19;98609.69;;;1.61;53.09
40982;BME280;26708;50.304;19.028;2023-01-27T13:15:30;98404.31;;;0.56;53.20
40982;BME280;26708;50.304;19.028;2023-01-27T13:17:38;98513.69;;;1.17;53.47
40982;BME280;26708;50.304;19.028;2023-01-27T13:26:17;98384.81;;;0.37;53.23
40982;BME280;26708;50.304;19.028;2023-01-27T13:31:57;98362.28;;;0.30;53.31
40982;BME280;26708;50.304;19.028;2023-01-27T13:34:20;98415.06;;;0.69;53.43
40982;BME280;26708;50.304;19.028;2023-01-27T13:36:39;98587.38;;;1.63;53.35
40982;BME280;26708;50.304;19.028;2023-01-27T13:38:59;98553.16;;;1.42;53.12
40982;BME280;26708;50.304;19.028;2023-01-27T13:41:21;98555.97;;;1.23;53.17
40982;BME280;26708;50.304;19.028;2023-01-27T14:43:54;98382.28;;;-0.09;52.50
40982;BME280;26708;50.304;19.028;2023-01-27T14:46:19;98669.06;;;1.64;52.39
40982;BME280;26708;50.304;19.028;2023-01-27T14:48:56;98559.38;;;0.97;52.33
40982;BME280;26708;50.304;19.028;2023-01-27T14:55:01;98528.03;;;0.85;52.44
40982;BME280;26708;50.304;19.028;2023-01-27T14:57:26;98336.53;;;-0.19;52.30
40982;BME280;26708;50.304;19.028;2023-01-27T15:00:00;98681.31;;;1.70;52.54
40982;BME280;26708;50.304;19.028;2023-01-27T15:57:46;98634.63;;;1.12;51.47
40982;BME280;26708;50.304;19.028;2023-01-27T16:00:03;98427.53;;;-0.14;51.47
40982;BME280;26708;50.304;19.028;2023-01-27T16:02:17;98559.22;;;0.69;51.24
40982;BME280;26708;50.304;19.028;2023-01-27T16:04:29;98647.59;;;1.15;50.93
40982;BME280;26708;50.304;19.028;2023-01-27T16:06:46;98440.94;;;0.01;51.12
40982;BME280;26708;50.304;19.028;2023-01-27T16:09:07;98416.66;;;-0.29;50.26
40982;BME280;26708;50.304;19.028;2023-01-27T16:11:22;98545.16;;;0.60;50.11
40982;BME280;26708;50.304;19.028;2023-01-27T16:13:51;98483.69;;;0.21;49.82
40982;BME280;26708;50.304;19.028;2023-01-27T16:16:34;98682.69;;;1.35;50.08
40982;BME280;26708;50.304;19.028;2023-01-27T16:18:46;98580.81;;;0.73;50.37
40982;BME280;26708;50.304;19.028;2023-01-27T16:21:01;98534.28;;;0.43;50.27
40982;BME280;26708;50.304;19.028;2023-01-27T16:23:39;98590.97;;;0.68;50.25
40982;BME280;26708;50.304;19.028;2023-01-27T16:28:44;98715.09;;;1.52;49.75
40982;BME280;26708;50.304;19.028;2023-01-27T16:31:04;98549.31;;;0.56;49.76
40982;BME280;26708;50.304;19.028;2023-01-27T16:33:23;98467.94;;;0.12;49.25
40982;BME280;26708;50.304;19.028;2023-01-27T16:35:42;98467.09;;;0.13;49.60
40982;BME280;26708;50.304;19.028;2023-01-27T16:38:02;98714.94;;;1.49;49.73
40982;BME280;26708;50.304;19.028;2023-01-27T16:40:16;98678.13;;;1.28;49.78
40982;BME280;26708;50.304;19.028;2023-01-27T16:42:33;98681.63;;;1.30;49.78
40982;BME280;26708;50.304;19.028;2023-01-27T16:44:44;98560.34;;;0.52;50.03
40982;BME280;26708;50.304;19.028;2023-01-27T16:49:50;98572.72;;;0.62;50.30
40982;BME280;26708;50.304;19.028;2023-01-27T17:00:44;98474.53;;;0.05;49.59
40982;BME280;26708;50.304;19.028;2023-01-27T17:14:15;98721.50;;;1.40;50.14
40982;BME280;26708;50.304;19.028;2023-01-27T17:19:19;98519.41;;;0.13;50.10
40982;BME280;26708;50.304;19.028;2023-01-27T17:21:32;98732.28;;;1.30;49.97
40982;BME280;26708;50.304;19.028;2023-01-27T17:23:42;98538.06;;;0.08;49.75
40982;BME280;26708;50.304;19.028;2023-01-27T17:25:48;98678.69;;;0.96;50.09
40982;BME280;26708;50.304;19.028;2023-01-27T17:30:49;98661.13;;;0.86;49.87
40982;BME280;26708;50.304;19.028;2023-01-27T17:32:58;98690.34;;;1.10;49.82
40982;BME280;26708;50.304;19.028;2023-01-27T17:35:20;98690.84;;;1.00;50.25
40982;BME280;26708;50.304;19.028;2023-01-27T17:37:29;98549.84;;;0.24;49.98
40982;BME280;26708;50.304;19.028;2023-01-27T17:39:36;98739.41;;;1.37;49.90
40982;BME280;26708;50.304;19.028;2023-01-27T18:06:01;98750.97;;;1.71;51.05
40982;BME280;26708;50.304;19.028;2023-01-27T18:42:13;98652.16;;;0.53;53.34
40982;BME280;26708;50.304;19.028;2023-01-27T18:44:32;98503.22;;;-0.28;53.41
40982;BME280;26708;50.304;19.028;2023-01-27T18:46:37;98497.06;;;-0.33;52.46
40982;BME280;26708;50.304;19.028;2023-01-27T18:48:42;98504.34;;;-0.44;52.36
40982;BME280;26708;50.304;19.028;2023-01-27T18:50:49;98637.63;;;0.32;52.07
40982;BME280;26708;50.304;19.028;2023-01-27T18:52:55;98678.31;;;0.42;51.85
40982;BME280;26708;50.304;19.028;2023-01-27T18:55:12;98797.44;;;1.26;51.62
40982;BME280;26708;50.304;19.028;2023-01-27T19:01:09;98773.75;;;1.12;51.66
40982;BME280;26708;50.304;19.028;2023-01-27T19:03:28;98730.25;;;0.76;51.68
40982;BME280;26708;50.304;19.028;2023-01-27T19:25:12;98520.94;;;-0.78;51.22
40982;BME280;26708;50.304;19.028;2023-01-27T19:30:29;98813.38;;;0.94;51.19
40982;BME280;26708;50.304;19.028;2023-01-27T19:32:36;98640.31;;;-0.07;51.19
40982;BME280;26708;50.304;19.028;2023-01-27T19:34:45;98613.19;;;-0.21;51.24
40982;BME280;26708;50.304;19.028;2023-01-27T19:36:51;98826.78;;;0.85;51.63
40982;BME280;26708;50.304;19.028;2023-01-27T19:39:07;98725.47;;;0.41;51.84
40982;BME280;26708;50.304;19.028;2023-01-27T19:41:30;98517.25;;;-0.85;51.80
40982;BME280;26708;50.304;19.028;2023-01-27T19:43:43;98822.63;;;0.89;51.94
40982;BME280;26708;50.304;19.028;2023-01-27T19:45:58;98510.88;;;-0.94;51.71
40982;BME280;26708;50.304;19.028;2023-01-27T19:48:15;98480.63;;;-1.01;51.65
40982;BME280;26708;50.304;19.028;2023-01-27T19:50:32;98581.19;;;-0.50;51.66
40982;BME280;26708;50.304;19.028;2023-01-27T19:52:38;98540.56;;;-0.80;51.82
40982;BME280;26708;50.304;19.028;2023-01-27T19:54:46;98663.66;;;-0.23;51.96
40982;BME280;26708;50.304;19.028;2023-01-27T19:56:57;98626.19;;;-0.18;51.79
40982;BME280;26708;50.304;19.028;2023-01-27T19:59:03;98652.50;;;-0.03;51.99
40982;BME280;26708;50.304;19.028;2023-01-27T20:01:21;98659.03;;;-0.11;52.00
40982;BME280;26708;50.304;19.028;2023-01-27T20:03:56;98575.19;;;-0.50;52.03
40982;BME280;26708;50.304;19.028;2023-01-27T20:06:17;98527.44;;;-0.66;51.91
40982;BME280;26708;50.304;19.028;2023-01-27T20:08:24;98833.94;;;1.14;52.01
40982;BME280;26708;50.304;19.028;2023-01-27T20:10:32;98567.38;;;-0.31;51.84
40982;BME280;26708;50.304;19.028;2023-01-27T20:12:40;98690.19;;;0.38;51.89
40982;BME280;26708;50.304;19.028;2023-01-27T20:14:47;98536.56;;;-0.52;51.95
40982;BME280;26708;50.304;19.028;2023-01-27T20:17:07;98842.09;;;1.25;51.82
40982;BME280;26708;50.304;19.028;2023-01-27T20:19:22;98834.38;;;1.26;51.68
40982;BME280;26708;50.304;19.028;2023-01-27T20:38:59;98539.94;;;-0.32;51.29
40982;BME280;26708;50.304;19.028;2023-01-27T20:47:34;98583.22;;;-0.21;51.71
40982;BME280;26708;50.304;19.028;2023-01-27T21:36:39;98833.09;;;1.59;51.02
40982;BME280;26708;50.304;19.028;2023-01-27T21:39:35;98621.88;;;0.24;50.74
40982;BME280;26708;50.304;19.028;2023-01-27T21:45:31;98834.69;;;1.57;51.16
40982;BME280;26708;50.304;19.028;2023-01-27T21:48:05;98540.47;;;-0.19;51.00
40982;BME280;26708;50.304;19.028;2023-01-27T21:51:35;98513.72;;;-0.24;50.90
40982;BME280;26708;50.304;19.028;2023-01-27T21:58:18;98611.31;;;0.17;51.18
40982;BME280;26708;50.304;19.028;2023-01-27T22:13:08;98783.31;;;1.38;51.28
40982;BME280;26708;50.304;19.028;2023-01-27T22:15:23;98697.94;;;0.84;51.33
40982;BME280;26708;50.304;19.028;2023-01-27T22:17:29;98761.22;;;1.23;51.47
40982;BME280;26708;50.304;19.028;2023-01-27T22:19:35;98663.53;;;0.58;51.56
40982;BME280;26708;50.304;19.028;2023-01-27T22:33:34;98806.25;;;1.54;52.01
40982;BME280;26708;50.304;19.028;2023-01-27T22:37:03;98711.97;;;0.92;51.82
40982;BME280;26708;50.304;19.028;2023-01-27T22:42:22;98695.09;;;0.76;52.08
40982;BME280;26708;50.304;19.028;2023-01-27T22:48:13;98683.03;;;0.75;52.09
40982;BME280;26708;50.304;19.028;2023-01-27T22:53:53;98622.03;;;0.51;52.29
